sensor_id;sensor_type;location;lat;lon;timestamp;pressure;altitude;pressure_sealevel;temperature;humidity
50702;BME280;36670;50.094;8.496;2022-12-05T00:02:03;100226.63;;;6.30;68.22
50702;BME280;36670;50.094;8.496;2022-12-05T00:04:28;100227.16;;;6.39;68.86
50702;BME280;36670;50.094;8.496;2022-12-05T00:06:54;100228.38;;;6.43;68.30
50702;BME280;36670;50.094;8.496;2022-12-05T00:09:19;100230.66;;;6.46;68.71
50702;BME280;36670;50.094;8.496;2022-12-05T00:11:44;100231.25;;;6.30;68.41
50702;BME280;36670;50.094;8.496;2022-12-05T00:14:11;100232.41;;;6.41;68.54
50702;BME280;36670;50.094;8.496;2022-12-05T00:16:39;100231.38;;;6.42;68.34
50702;BME280;36670;50.094;8.496;2022-12-05T00:19:06;100230.28;;;6.43;68.98
50702;BME280;36670;50.094;8.496;2022-12-05T00:21:33;100237.97;;;6.34;68.44
50702;BME280;36670;50.094;8.496;2022-12-05T00:23:59;100229.69;;;6.41;68.25
50702;BME280;36670;50.094;8.496;2022-12-05T00:26:25;100233.69;;;6.38;68.85
50702;BME280;36670;50.094;8.496;2022-12-05T00:28:51;100233.47;;;6.40;67.95
50702;BME280;36670;50.094;8.496;2022-12-05T00:31:19;100243.97;;;6.43;68.07
50702;BME280;36670;50.094;8.496;2022-12-05T00:33:46;100246.34;;;6.39;68.30
50702;BME280;36670;50.094;8.496;2022-12-05T00:36:20;100246.34;;;6.39;68.36
50702;BME280;36670;50.094;8.496;2022-12-05T00:38:46;100254.81;;;6.38;68.33
50702;BME280;36670;50.094;8.496;2022-12-05T00:41:14;100252.59;;;6.46;68.21
50702;BME280;36670;50.094;8.496;2022-12-05T00:43:41;100256.19;;;6.47;68.35
50702;BME280;36670;50.094;8.496;2022-12-05T00:46:10;100256.63;;;6.44;68.24
50702;BME280;36670;50.094;8.496;2022-12-05T00:48:36;100256.41;;;6.45;67.89
50702;BME280;36670;50.094;8.496;2022-12-05T00:51:04;100265.88;;;6.49;67.38
50702;BME280;36670;50.094;8.496;2022-12-05T00:53:30;100258.25;;;6.52;68.22
50702;BME280;36670;50.094;8.496;2022-12-05T00:55:56;100260.94;;;6.58;67.81
50702;BME280;36670;50.094;8.496;2022-12-05T00:58:21;100260.91;;;6.40;67.75
50702;BME280;36670;50.094;8.496;2022-12-05T01:00:46;100259.38;;;6.44;67.94
50702;BME280;36670;50.094;8.496;2022-12-05T01:03:12;100265.88;;;6.49;67.66
50702;BME280;36670;50.094;8.496;2022-12-05T01:05:37;100270.28;;;6.51;67.73
50702;BME280;36670;50.094;8.496;2022-12-05T01:08:02;100270.13;;;6.45;68.27
50702;BME280;36670;50.094;8.496;2022-12-05T01:10:28;100275.94;;;6.56;67.82
50702;BME280;36670;50.094;8.496;2022-12-05T01:12:53;100283.19;;;6.25;68.93
50702;BME280;36670;50.094;8.496;2022-12-05T01:15:18;100286.56;;;6.02;68.95
50702;BME280;36670;50.094;8.496;2022-12-05T01:17:44;100283.69;;;6.15;69.15
50702;BME280;36670;50.094;8.496;2022-12-05T01:20:09;100287.44;;;6.21;68.89
50702;BME280;36670;50.094;8.496;2022-12-05T01:22:35;100294.53;;;6.28;68.98
50702;BME280;36670;50.094;8.496;2022-12-05T01:25:02;100292.50;;;6.24;68.50
50702;BME280;36670;50.094;8.496;2022-12-05T01:27:27;100290.84;;;6.16;68.70
50702;BME280;36670;50.094;8.496;2022-12-05T01:29:53;100288.34;;;6.14;68.66
50702;BME280;36670;50.094;8.496;2022-12-05T01:32:18;100281.59;;;6.36;68.39
50702;BME280;36670;50.094;8.496;2022-12-05T01:34:43;100287.78;;;6.31;69.15
50702;BME280;36670;50.094;8.496;2022-12-05T01:37:08;100291.75;;;6.35;68.70
50702;BME280;36670;50.094;8.496;2022-12-05T01:39:34;100294.56;;;6.47;69.21
50702;BME280;36670;50.094;8.496;2022-12-05T01:41:59;100293.44;;;6.36;68.26
50702;BME280;36670;50.094;8.496;2022-12-05T01:46:51;100305.81;;;6.39;68.90
50702;BME280;36670;50.094;8.496;2022-12-05T01:49:20;100314.78;;;6.53;68.77
50702;BME280;36670;50.094;8.496;2022-12-05T01:51:51;100301.63;;;6.61;68.39
50702;BME280;36670;50.094;8.496;2022-12-05T01:54:18;100305.03;;;6.57;67.95
50702;BME280;36670;50.094;8.496;2022-12-05T01:56:47;100312.94;;;6.46;67.94
50702;BME280;36670;50.094;8.496;2022-12-05T01:59:16;100304.03;;;6.51;67.98
50702;BME280;36670;50.094;8.496;2022-12-05T02:01:42;100311.59;;;6.56;68.42
50702;BME280;36670;50.094;8.496;2022-12-05T02:04:08;100311.59;;;6.56;67.92
50702;BME280;36670;50.094;8.496;2022-12-05T02:06:34;100304.75;;;6.65;67.51
50702;BME280;36670;50.094;8.496;2022-12-05T02:09:00;100311.38;;;6.57;67.53
50702;BME280;36670;50.094;8.496;2022-12-05T02:11:27;100310.09;;;6.60;67.35
50702;BME280;36670;50.094;8.496;2022-12-05T02:17:30;100305.81;;;6.64;67.35
50702;BME280;36670;50.094;8.496;2022-12-05T02:31:12;100307.88;;;6.69;67.40
50702;BME280;36670;50.094;8.496;2022-12-05T02:34:15;100312.75;;;6.66;67.88
50702;BME280;36670;50.094;8.496;2022-12-05T02:36:44;100308.22;;;6.54;67.90
50702;BME280;36670;50.094;8.496;2022-12-05T02:41:55;100304.50;;;6.66;67.79
50702;BME280;36670;50.094;8.496;2022-12-05T02:44:37;100304.16;;;6.63;67.84
50702;BME280;36670;50.094;8.496;2022-12-05T02:47:06;100305.13;;;6.50;67.91
50702;BME280;36670;50.094;8.496;2022-12-05T02:49:35;100307.00;;;6.49;67.98
50702;BME280;36670;50.094;8.496;2022-12-05T02:52:02;100295.56;;;6.53;67.63
50702;BME280;36670;50.094;8.496;2022-12-05T02:54:34;100294.22;;;6.62;67.36
50702;BME280;36670;50.094;8.496;2022-12-05T02:57:00;100299.13;;;6.60;67.49
50702;BME280;36670;50.094;8.496;2022-12-05T02:59:26;100304.31;;;6.68;67.69
50702;BME280;36670;50.094;8.496;2022-12-05T03:01:51;100305.72;;;6.71;67.66
50702;BME280;36670;50.094;8.496;2022-12-05T03:04:18;100301.09;;;6.71;67.33
50702;BME280;36670;50.094;8.496;2022-12-05T03:06:52;100294.66;;;6.40;67.70
50702;BME280;36670;50.094;8.496;2022-12-05T03:09:33;100310.31;;;6.08;68.76
50702;BME280;36670;50.094;8.496;2022-12-05T03:14:47;100308.66;;;6.32;68.26
50702;BME280;36670;50.094;8.496;2022-12-05T03:17:20;100306.19;;;6.24;68.67
50702;BME280;36670;50.094;8.496;2022-12-05T03:19:54;100308.03;;;6.30;68.10
50702;BME280;36670;50.094;8.496;2022-12-05T03:22:45;100316.03;;;6.31;68.63
50702;BME280;36670;50.094;8.496;2022-12-05T03:25:13;100316.25;;;6.30;68.12
50702;BME280;36670;50.094;8.496;2022-12-05T03:30:17;100338.34;;;6.10;68.89
50702;BME280;36670;50.094;8.496;2022-12-05T03:33:02;100338.41;;;6.03;69.55
50702;BME280;36670;50.094;8.496;2022-12-05T03:35:52;100340.97;;;5.91;70.00
50702;BME280;36670;50.094;8.496;2022-12-05T03:38:32;100337.50;;;6.09;69.30
50702;BME280;36670;50.094;8.496;2022-12-05T03:44:00;100349.84;;;6.25;69.10
50702;BME280;36670;50.094;8.496;2022-12-05T03:46:33;100359.34;;;6.23;69.49
50702;BME280;36670;50.094;8.496;2022-12-05T03:49:38;100355.81;;;6.15;69.70
50702;BME280;36670;50.094;8.496;2022-12-05T03:52:10;100364.69;;;6.11;69.70
50702;BME280;36670;50.094;8.496;2022-12-05T03:54:44;100358.09;;;6.19;69.33
50702;BME280;36670;50.094;8.496;2022-12-05T03:57:15;100356.94;;;6.33;69.22
50702;BME280;36670;50.094;8.496;2022-12-05T03:59:51;100360.13;;;6.30;68.83
50702;BME280;36670;50.094;8.496;2022-12-05T04:02:24;100364.41;;;6.19;68.93
50702;BME280;36670;50.094;8.496;2022-12-05T04:05:01;100357.84;;;6.27;68.98
50702;BME280;36670;50.094;8.496;2022-12-05T04:07:30;100364.38;;;6.51;68.53
50702;BME280;36670;50.094;8.496;2022-12-05T04:10:02;100367.34;;;6.49;68.13
50702;BME280;36670;50.094;8.496;2022-12-05T04:12:32;100350.94;;;6.18;69.36
50702;BME280;36670;50.094;8.496;2022-12-05T04:15:04;100354.31;;;6.20;68.68
50702;BME280;36670;50.094;8.496;2022-12-05T04:17:39;100363.28;;;6.34;69.26
50702;BME280;36670;50.094;8.496;2022-12-05T04:20:36;100360.53;;;6.59;68.72
50702;BME280;36670;50.094;8.496;2022-12-05T04:23:22;100364.78;;;6.55;68.05
50702;BME280;36670;50.094;8.496;2022-12-05T04:31:04;100356.44;;;6.68;68.39
50702;BME280;36670;50.094;8.496;2022-12-05T04:36:18;100368.66;;;6.72;68.23
50702;BME280;36670;50.094;8.496;2022-12-05T04:39:09;100372.72;;;6.63;68.36
50702;BME280;36670;50.094;8.496;2022-12-05T04:41:38;100374.19;;;6.65;67.91
50702;BME280;36670;50.094;8.496;2022-12-05T04:44:09;100378.59;;;6.66;68.39
50702;BME280;36670;50.094;8.496;2022-12-05T04:46:38;100378.81;;;6.65;68.55
50702;BME280;36670;50.094;8.496;2022-12-05T04:49:07;100379.91;;;6.64;68.49
50702;BME280;36670;50.094;8.496;2022-12-05T04:51:35;100383.19;;;6.73;68.41
50702;BME280;36670;50.094;8.496;2022-12-05T04:54:13;100385.25;;;6.77;68.38
50702;BME280;36670;50.094;8.496;2022-12-05T04:56:43;100389.44;;;6.80;67.90
50702;BME280;36670;50.094;8.496;2022-12-05T04:59:10;100384.28;;;6.65;68.40
50702;BME280;36670;50.094;8.496;2022-12-05T05:01:43;100396.44;;;6.76;67.64
50702;BME280;36670;50.094;8.496;2022-12-05T05:04:16;100397.28;;;6.76;68.08
50702;BME280;36670;50.094;8.496;2022-12-05T05:06:44;100394.72;;;6.56;68.39
50702;BME280;36670;50.094;8.496;2022-12-05T05:09:10;100395.72;;;6.37;68.83
50702;BME280;36670;50.094;8.496;2022-12-05T05:11:35;100389.25;;;6.56;69.08
50702;BME280;36670;50.094;8.496;2022-12-05T05:14:02;100393.22;;;6.60;68.94
50702;BME280;36670;50.094;8.496;2022-12-05T05:16:36;100391.66;;;6.71;68.65
50702;BME280;36670;50.094;8.496;2022-12-05T05:19:02;100399.94;;;6.64;68.83
50702;BME280;36670;50.094;8.496;2022-12-05T05:21:33;100401.75;;;6.45;68.65
50702;BME280;36670;50.094;8.496;2022-12-05T05:23:58;100411.41;;;6.55;68.61
50702;BME280;36670;50.094;8.496;2022-12-05T05:26:26;100406.25;;;6.65;68.51
50702;BME280;36670;50.094;8.496;2022-12-05T05:28:52;100402.50;;;6.59;68.62
50702;BME280;36670;50.094;8.496;2022-12-05T05:31:19;100398.41;;;6.43;69.19
50702;BME280;36670;50.094;8.496;2022-12-05T05:33:49;100404.50;;;6.45;68.96
50702;BME280;36670;50.094;8.496;2022-12-05T05:36:14;100405.22;;;6.34;68.95
50702;BME280;36670;50.094;8.496;2022-12-05T05:38:42;100401.69;;;6.27;69.59
50702;BME280;36670;50.094;8.496;2022-12-05T05:41:32;100401.16;;;6.43;69.12
50702;BME280;36670;50.094;8.496;2022-12-05T05:43:58;100404.41;;;6.59;68.83
50702;BME280;36670;50.094;8.496;2022-12-05T05:46:26;100400.94;;;6.45;69.56
50702;BME280;36670;50.094;8.496;2022-12-05T05:48:51;100405.81;;;6.68;68.26
50702;BME280;36670;50.094;8.496;2022-12-05T05:51:18;100400.72;;;6.72;68.81
50702;BME280;36670;50.094;8.496;2022-12-05T05:53:43;100399.44;;;6.74;68.61
50702;BME280;36670;50.094;8.496;2022-12-05T05:56:13;100400.19;;;6.81;68.49
50702;BME280;36670;50.094;8.496;2022-12-05T05:58:38;100402.41;;;6.73;68.29
50702;BME280;36670;50.094;8.496;2022-12-05T06:01:12;100402.53;;;6.53;68.65
50702;BME280;36670;50.094;8.496;2022-12-05T06:03:38;100394.63;;;6.44;69.22
50702;BME280;36670;50.094;8.496;2022-12-05T06:06:06;100399.59;;;6.54;68.81
50702;BME280;36670;50.094;8.496;2022-12-05T06:08:33;100396.47;;;6.51;69.11
50702;BME280;36670;50.094;8.496;2022-12-05T06:11:04;100401.94;;;6.51;69.30
50702;BME280;36670;50.094;8.496;2022-12-05T06:13:29;100412.13;;;6.69;69.28
50702;BME280;36670;50.094;8.496;2022-12-05T06:15:55;100417.06;;;6.60;69.00
50702;BME280;36670;50.094;8.496;2022-12-05T06:18:20;100415.47;;;6.71;69.10
50702;BME280;36670;50.094;8.496;2022-12-05T06:20:53;100421.38;;;6.74;68.98
50702;BME280;36670;50.094;8.496;2022-12-05T06:23:19;100424.00;;;6.62;69.33
50702;BME280;36670;50.094;8.496;2022-12-05T06:25:48;100426.00;;;6.48;69.30
50702;BME280;36670;50.094;8.496;2022-12-05T06:28:14;100420.75;;;6.47;69.07
50702;BME280;36670;50.094;8.496;2022-12-05T06:30:39;100421.75;;;6.53;69.31
50702;BME280;36670;50.094;8.496;2022-12-05T06:33:05;100426.19;;;6.54;69.58
50702;BME280;36670;50.094;8.496;2022-12-05T06:35:30;100430.44;;;6.75;69.46
50702;BME280;36670;50.094;8.496;2022-12-05T06:37:55;100431.25;;;6.82;68.92
50702;BME280;36670;50.094;8.496;2022-12-05T06:40:21;100439.41;;;6.89;69.05
50702;BME280;36670;50.094;8.496;2022-12-05T06:42:46;100434.53;;;6.91;68.69
50702;BME280;36670;50.094;8.496;2022-12-05T06:45:11;100428.38;;;6.70;68.76
50702;BME280;36670;50.094;8.496;2022-12-05T06:47:37;100429.59;;;6.74;68.65
50702;BME280;36670;50.094;8.496;2022-12-05T06:50:03;100438.06;;;6.73;69.08
50702;BME280;36670;50.094;8.496;2022-12-05T06:52:28;100440.91;;;6.84;68.28
50702;BME280;36670;50.094;8.496;2022-12-05T06:54:54;100445.06;;;6.94;68.68
50702;BME280;36670;50.094;8.496;2022-12-05T06:57:19;100446.13;;;6.93;68.07
50702;BME280;36670;50.094;8.496;2022-12-05T06:59:44;100445.47;;;6.97;68.19
50702;BME280;36670;50.094;8.496;2022-12-05T07:02:11;100446.13;;;6.93;68.38
50702;BME280;36670;50.094;8.496;2022-12-05T07:04:37;100443.06;;;6.82;68.87
50702;BME280;36670;50.094;8.496;2022-12-05T07:07:03;100446.16;;;6.86;68.92
50702;BME280;36670;50.094;8.496;2022-12-05T07:09:28;100445.56;;;6.84;68.81
50702;BME280;36670;50.094;8.496;2022-12-05T07:12:14;100451.72;;;6.54;69.35
50702;BME280;36670;50.094;8.496;2022-12-05T07:14:39;100461.88;;;6.47;70.32
50702;BME280;36670;50.094;8.496;2022-12-05T07:17:04;100462.81;;;6.66;69.97
50702;BME280;36670;50.094;8.496;2022-12-05T07:19:30;100459.09;;;6.54;69.62
50702;BME280;36670;50.094;8.496;2022-12-05T07:21:55;100465.00;;;6.57;69.75
50702;BME280;36670;50.094;8.496;2022-12-05T07:24:21;100462.50;;;6.49;69.46
50702;BME280;36670;50.094;8.496;2022-12-05T07:26:46;100474.53;;;6.48;70.16
50702;BME280;36670;50.094;8.496;2022-12-05T07:29:11;100469.94;;;6.42;70.14
50702;BME280;36670;50.094;8.496;2022-12-05T07:31:36;100478.41;;;6.40;70.38
50702;BME280;36670;50.094;8.496;2022-12-05T07:34:02;100474.00;;;6.32;70.63
50702;BME280;36670;50.094;8.496;2022-12-05T07:36:27;100477.47;;;6.14;70.71
50702;BME280;36670;50.094;8.496;2022-12-05T07:38:57;100483.75;;;6.22;71.18
50702;BME280;36670;50.094;8.496;2022-12-05T07:41:25;100491.56;;;6.57;70.31
50702;BME280;36670;50.094;8.496;2022-12-05T07:43:51;100483.34;;;6.57;70.07
50702;BME280;36670;50.094;8.496;2022-12-05T07:46:17;100488.06;;;6.43;70.73
50702;BME280;36670;50.094;8.496;2022-12-05T07:48:43;100504.91;;;6.14;70.66
50702;BME280;36670;50.094;8.496;2022-12-05T07:51:09;100500.00;;;6.23;70.63
50702;BME280;36670;50.094;8.496;2022-12-05T07:53:35;100499.44;;;6.46;70.74
50702;BME280;36670;50.094;8.496;2022-12-05T07:56:03;100502.50;;;6.63;70.04
50702;BME280;36670;50.094;8.496;2022-12-05T07:58:30;100501.22;;;6.66;70.26
50702;BME280;36670;50.094;8.496;2022-12-05T08:00:56;100499.09;;;6.68;70.29
50702;BME280;36670;50.094;8.496;2022-12-05T08:03:23;100499.75;;;6.63;70.94
50702;BME280;36670;50.094;8.496;2022-12-05T08:05:48;100508.22;;;6.62;70.73
50702;BME280;36670;50.094;8.496;2022-12-05T08:08:14;100516.31;;;6.50;70.38
50702;BME280;36670;50.094;8.496;2022-12-05T08:10:39;100510.56;;;6.58;69.96
50702;BME280;36670;50.094;8.496;2022-12-05T08:13:05;100524.63;;;6.37;70.72
50702;BME280;36670;50.094;8.496;2022-12-05T08:15:33;100525.19;;;6.45;70.48
50702;BME280;36670;50.094;8.496;2022-12-05T08:17:59;100518.97;;;6.63;70.10
50702;BME280;36670;50.094;8.496;2022-12-05T08:20:24;100522.22;;;6.79;69.57
50702;BME280;36670;50.094;8.496;2022-12-05T08:22:51;100523.22;;;6.59;69.95
50702;BME280;36670;50.094;8.496;2022-12-05T08:25:17;100518.66;;;6.46;70.82
50702;BME280;36670;50.094;8.496;2022-12-05T08:27:42;100522.06;;;6.42;70.80
50702;BME280;36670;50.094;8.496;2022-12-05T08:30:08;100523.09;;;6.47;70.74
50702;BME280;36670;50.094;8.496;2022-12-05T08:32:33;100524.06;;;6.60;70.27
50702;BME280;36670;50.094;8.496;2022-12-05T08:34:58;100529.44;;;6.73;70.00
50702;BME280;36670;50.094;8.496;2022-12-05T08:37:24;100527.72;;;6.79;69.75
50702;BME280;36670;50.094;8.496;2022-12-05T08:39:49;100530.78;;;6.64;70.31
50702;BME280;36670;50.094;8.496;2022-12-05T08:42:14;100542.38;;;6.66;70.10
50702;BME280;36670;50.094;8.496;2022-12-05T08:44:40;100546.41;;;6.63;70.22
50702;BME280;36670;50.094;8.496;2022-12-05T08:47:05;100551.56;;;6.46;70.58
50702;BME280;36670;50.094;8.496;2022-12-05T08:49:30;100552.38;;;6.54;70.26
50702;BME280;36670;50.094;8.496;2022-12-05T08:51:56;100553.53;;;6.71;70.33
50702;BME280;36670;50.094;8.496;2022-12-05T08:54:21;100559.84;;;6.72;70.27
50702;BME280;36670;50.094;8.496;2022-12-05T08:56:49;100561.81;;;6.64;70.17
50702;BME280;36670;50.094;8.496;2022-12-05T08:59:15;100553.16;;;6.61;70.70
50702;BME280;36670;50.094;8.496;2022-12-05T09:01:41;100563.06;;;6.62;70.34
50702;BME280;36670;50.094;8.496;2022-12-05T09:04:07;100564.63;;;6.83;70.20
50702;BME280;36670;50.094;8.496;2022-12-05T09:06:33;100568.81;;;6.54;69.88
50702;BME280;36670;50.094;8.496;2022-12-05T09:09:00;100569.25;;;6.51;70.03
50702;BME280;36670;50.094;8.496;2022-12-05T09:11:31;100563.25;;;6.67;70.09
50702;BME280;36670;50.094;8.496;2022-12-05T09:13:58;100568.75;;;6.67;70.82
50702;BME280;36670;50.094;8.496;2022-12-05T09:16:27;100570.63;;;6.66;69.94
50702;BME280;36670;50.094;8.496;2022-12-05T09:18:56;100576.97;;;6.67;69.95
50702;BME280;36670;50.094;8.496;2022-12-05T09:21:24;100576.84;;;6.87;70.35
50702;BME280;36670;50.094;8.496;2022-12-05T09:23:50;100579.47;;;6.75;69.67
50702;BME280;36670;50.094;8.496;2022-12-05T09:26:19;100576.63;;;6.89;69.72
50702;BME280;36670;50.094;8.496;2022-12-05T09:28:45;100575.66;;;6.76;70.13
50702;BME280;36670;50.094;8.496;2022-12-05T09:31:29;100577.47;;;6.89;69.28
50702;BME280;36670;50.094;8.496;2022-12-05T09:33:54;100582.84;;;7.03;69.53
50702;BME280;36670;50.094;8.496;2022-12-05T09:36:30;100581.13;;;7.08;69.85
50702;BME280;36670;50.094;8.496;2022-12-05T09:39:02;100589.25;;;6.96;70.08
50702;BME280;36670;50.094;8.496;2022-12-05T09:42:03;100594.53;;;7.23;69.73
50702;BME280;36670;50.094;8.496;2022-12-05T09:44:40;100590.44;;;7.07;69.54
50702;BME280;36670;50.094;8.496;2022-12-05T09:49:39;100593.41;;;7.06;69.25
50702;BME280;36670;50.094;8.496;2022-12-05T09:52:16;100592.53;;;7.12;69.52
50702;BME280;36670;50.094;8.496;2022-12-05T09:54:47;100591.44;;;6.88;69.44
50702;BME280;36670;50.094;8.496;2022-12-05T09:57:13;100590.56;;;7.19;69.57
50702;BME280;36670;50.094;8.496;2022-12-05T09:59:38;100590.09;;;6.97;70.22
50702;BME280;36670;50.094;8.496;2022-12-05T10:05:39;100590.84;;;7.36;69.25
50702;BME280;36670;50.094;8.496;2022-12-05T10:08:20;100585.78;;;7.08;70.04
50702;BME280;36670;50.094;8.496;2022-12-05T10:11:05;100586.47;;;7.28;69.39
50702;BME280;36670;50.094;8.496;2022-12-05T10:14:02;100585.94;;;7.45;68.72
50702;BME280;36670;50.094;8.496;2022-12-05T10:16:47;100581.66;;;7.49;68.63
50702;BME280;36670;50.094;8.496;2022-12-05T10:19:42;100588.53;;;7.58;68.15
50702;BME280;36670;50.094;8.496;2022-12-05T10:22:13;100585.56;;;7.60;68.43
50702;BME280;36670;50.094;8.496;2022-12-05T10:24:44;100586.75;;;7.45;68.51
50702;BME280;36670;50.094;8.496;2022-12-05T10:27:17;100585.03;;;7.26;69.46
50702;BME280;36670;50.094;8.496;2022-12-05T10:30:00;100572.25;;;7.38;69.15
50702;BME280;36670;50.094;8.496;2022-12-05T10:32:34;100574.75;;;7.40;69.24
50702;BME280;36670;50.094;8.496;2022-12-05T10:35:52;100568.06;;;7.54;68.63
50702;BME280;36670;50.094;8.496;2022-12-05T10:38:16;100573.41;;;7.49;68.94
50702;BME280;36670;50.094;8.496;2022-12-05T10:40:49;100569.06;;;7.60;68.33
50702;BME280;36670;50.094;8.496;2022-12-05T10:43:23;100573.72;;;7.59;68.39
50702;BME280;36670;50.094;8.496;2022-12-05T10:45:49;100571.97;;;7.65;68.88
50702;BME280;36670;50.094;8.496;2022-12-05T10:48:16;100568.19;;;7.84;68.85
50702;BME280;36670;50.094;8.496;2022-12-05T10:50:44;100561.09;;;7.95;68.31
50702;BME280;36670;50.094;8.496;2022-12-05T10:53:20;100559.00;;;7.72;68.48
50702;BME280;36670;50.094;8.496;2022-12-05T10:55:48;100550.94;;;7.96;68.57
50702;BME280;36670;50.094;8.496;2022-12-05T11:00:42;100549.03;;;7.96;69.02
50702;BME280;36670;50.094;8.496;2022-12-05T11:03:33;100547.78;;;8.11;67.74
50702;BME280;36670;50.094;8.496;2022-12-05T11:06:01;100552.03;;;7.95;67.58
50702;BME280;36670;50.094;8.496;2022-12-05T11:08:31;100553.38;;;8.04;67.35
50702;BME280;36670;50.094;8.496;2022-12-05T11:11:05;100554.22;;;7.67;68.61
50702;BME280;36670;50.094;8.496;2022-12-05T11:13:32;100556.84;;;7.56;68.51
50702;BME280;36670;50.094;8.496;2022-12-05T11:15:58;100553.06;;;7.31;68.94
50702;BME280;36670;50.094;8.496;2022-12-05T11:20:48;100548.25;;;7.27;69.48
50702;BME280;36670;50.094;8.496;2022-12-05T11:23:32;100552.50;;;7.48;69.17
50702;BME280;36670;50.094;8.496;2022-12-05T11:25:57;100559.56;;;7.37;69.33
50702;BME280;36670;50.094;8.496;2022-12-05T11:28:29;100560.00;;;7.59;69.07
50702;BME280;36670;50.094;8.496;2022-12-05T11:31:00;100564.78;;;7.64;69.07
50702;BME280;36670;50.094;8.496;2022-12-05T11:33:28;100571.22;;;7.76;68.64
50702;BME280;36670;50.094;8.496;2022-12-05T11:35:56;100564.59;;;7.84;68.18
50702;BME280;36670;50.094;8.496;2022-12-05T11:38:26;100565.88;;;7.63;68.75
50702;BME280;36670;50.094;8.496;2022-12-05T11:41:01;100564.44;;;7.79;68.67
50702;BME280;36670;50.094;8.496;2022-12-05T11:46:41;100566.06;;;7.43;68.99
50702;BME280;36670;50.094;8.496;2022-12-05T11:55:13;100568.25;;;7.34;68.38
50702;BME280;36670;50.094;8.496;2022-12-05T12:03:43;100562.44;;;7.67;68.62
50702;BME280;36670;50.094;8.496;2022-12-05T12:06:26;100566.13;;;7.61;68.92
50702;BME280;36670;50.094;8.496;2022-12-05T12:09:06;100566.78;;;7.57;69.29
50702;BME280;36670;50.094;8.496;2022-12-05T12:11:48;100560.22;;;7.58;69.45
50702;BME280;36670;50.094;8.496;2022-12-05T12:17:16;100564.44;;;7.79;68.20
50702;BME280;36670;50.094;8.496;2022-12-05T12:22:45;100559.81;;;7.54;69.11
50702;BME280;36670;50.094;8.496;2022-12-05T12:46:51;100556.13;;;7.85;69.46
50702;BME280;36670;50.094;8.496;2022-12-05T12:49:28;100558.53;;;7.57;69.52
50702;BME280;36670;50.094;8.496;2022-12-05T12:52:04;100555.50;;;7.65;69.63
50702;BME280;36670;50.094;8.496;2022-12-05T13:00:09;100557.88;;;7.98;68.90
50702;BME280;36670;50.094;8.496;2022-12-05T13:02:49;100562.03;;;7.89;68.62
50702;BME280;36670;50.094;8.496;2022-12-05T13:07:50;100554.22;;;8.05;68.31
50702;BME280;36670;50.094;8.496;2022-12-05T13:12:49;100545.88;;;8.11;68.15
50702;BME280;36670;50.094;8.496;2022-12-05T13:15:18;100546.03;;;8.16;68.15
50702;BME280;36670;50.094;8.496;2022-12-05T13:17:47;100544.91;;;8.24;68.48
50702;BME280;36670;50.094;8.496;2022-12-05T13:20:19;100549.88;;;7.97;68.36
50702;BME280;36670;50.094;8.496;2022-12-05T13:22:48;100559.41;;;7.94;69.03
50702;BME280;36670;50.094;8.496;2022-12-05T13:25:15;100558.47;;;7.82;69.39
50702;BME280;36670;50.094;8.496;2022-12-05T13:28:02;100551.41;;;7.93;69.31
50702;BME280;36670;50.094;8.496;2022-12-05T13:30:29;100561.16;;;7.89;69.65
50702;BME280;36670;50.094;8.496;2022-12-05T13:32:58;100560.09;;;7.90;69.57
50702;BME280;36670;50.094;8.496;2022-12-05T13:35:31;100558.41;;;7.70;69.56
50702;BME280;36670;50.094;8.496;2022-12-05T13:38:27;100556.44;;;7.77;69.19
50702;BME280;36670;50.094;8.496;2022-12-05T13:41:12;100554.75;;;7.76;69.58
50702;BME280;36670;50.094;8.496;2022-12-05T13:43:56;100557.72;;;7.75;69.68
50702;BME280;36670;50.094;8.496;2022-12-05T13:46:29;100551.47;;;7.86;69.72
50702;BME280;36670;50.094;8.496;2022-12-05T13:48:59;100557.66;;;7.81;69.97
50702;BME280;36670;50.094;8.496;2022-12-05T13:51:33;100567.19;;;7.79;69.57
50702;BME280;36670;50.094;8.496;2022-12-05T13:54:22;100555.66;;;7.70;69.84
50702;BME280;36670;50.094;8.496;2022-12-05T13:56:51;100551.06;;;7.64;70.50
50702;BME280;36670;50.094;8.496;2022-12-05T14:07:48;100560.03;;;7.96;70.11
50702;BME280;36670;50.094;8.496;2022-12-05T14:13:01;100557.94;;;7.92;69.76
50702;BME280;36670;50.094;8.496;2022-12-05T14:15:35;100562.31;;;7.99;69.54
50702;BME280;36670;50.094;8.496;2022-12-05T14:21:07;100563.31;;;7.86;69.98
50702;BME280;36670;50.094;8.496;2022-12-05T14:23:59;100572.03;;;8.02;69.87
50702;BME280;36670;50.094;8.496;2022-12-05T14:27:03;100562.84;;;8.08;69.87
50702;BME280;36670;50.094;8.496;2022-12-05T14:34:34;100576.59;;;7.71;70.51
50702;BME280;36670;50.094;8.496;2022-12-05T14:37:24;100579.78;;;7.68;70.92
50702;BME280;36670;50.094;8.496;2022-12-05T14:39:53;100582.03;;;7.52;70.88
50702;BME280;36670;50.094;8.496;2022-12-05T14:44:49;100582.69;;;7.92;70.77
50702;BME280;36670;50.094;8.496;2022-12-05T14:47:25;100587.81;;;8.07;70.44
50702;BME280;36670;50.094;8.496;2022-12-05T14:52:22;100589.75;;;8.06;70.75
50702;BME280;36670;50.094;8.496;2022-12-05T14:54:51;100575.38;;;7.85;71.11
50702;BME280;36670;50.094;8.496;2022-12-05T14:57:18;100566.81;;;7.75;71.02
50702;BME280;36670;50.094;8.496;2022-12-05T15:00:21;100581.03;;;7.91;70.80
50702;BME280;36670;50.094;8.496;2022-12-05T15:02:44;100575.16;;;7.87;71.11
50702;BME280;36670;50.094;8.496;2022-12-05T15:05:19;100574.63;;;7.97;70.59
50702;BME280;36670;50.094;8.496;2022-12-05T15:07:47;100586.53;;;8.09;70.72
50702;BME280;36670;50.094;8.496;2022-12-05T15:13:14;100581.81;;;7.98;70.52
50702;BME280;36670;50.094;8.496;2022-12-05T15:15:43;100586.75;;;7.89;71.33
50702;BME280;36670;50.094;8.496;2022-12-05T15:23:44;100578.69;;;8.13;70.36
50702;BME280;36670;50.094;8.496;2022-12-05T15:26:21;100577.03;;;8.24;70.35
50702;BME280;36670;50.094;8.496;2022-12-05T15:31:27;100581.00;;;8.28;69.51
50702;BME280;36670;50.094;8.496;2022-12-05T15:33:56;100582.03;;;8.15;70.29